sensor_id;sensor_type;location;lat;lon;timestamp;P1;durP1;ratioP1;P2;durP2;ratioP2
11996;SDS011;6058;48.704;9.474;2022-12-29T00:02:26;8.00;;;4.97;;
11996;SDS011;6058;48.704;9.474;2022-12-29T00:04:53;7.50;;;5.80;;
11996;SDS011;6058;48.704;9.474;2022-12-29T00:07:22;7.60;;;5.60;;
11996;SDS011;6058;48.704;9.474;2022-12-29T00:09:49;6.63;;;5.33;;
11996;SDS011;6058;48.704;9.474;2022-12-29T00:12:16;6.80;;;5.00;;
11996;SDS011;6058;48.704;9.474;2022-12-29T00:14:43;9.87;;;5.10;;
11996;SDS011;6058;48.704;9.474;2022-12-29T00:17:28;7.50;;;5.17;;
11996;SDS011;6058;48.704;9.474;2022-12-29T00:19:56;7.20;;;4.80;;
11996;SDS011;6058;48.704;9.474;2022-12-29T00:22:42;6.77;;;4.47;;
11996;SDS011;6058;48.704;9.474;2022-12-29T00:25:27;9.37;;;4.67;;
11996;SDS011;6058;48.704;9.474;2022-12-29T00:28:11;7.63;;;5.07;;
11996;SDS011;6058;48.704;9.474;2022-12-29T00:30:58;6.20;;;4.23;;
11996;SDS011;6058;48.704;9.474;2022-12-29T00:33:43;7.23;;;5.30;;
11996;SDS011;6058;48.704;9.474;2022-12-29T00:36:28;6.23;;;4.47;;
11996;SDS011;6058;48.704;9.474;2022-12-29T00:39:00;6.97;;;4.80;;
11996;SDS011;6058;48.704;9.474;2022-12-29T00:41:45;7.13;;;5.10;;
11996;SDS011;6058;48.704;9.474;2022-12-29T00:44:30;6.00;;;4.57;;
11996;SDS011;6058;48.704;9.474;2022-12-29T00:46:57;7.87;;;5.37;;
11996;SDS011;6058;48.704;9.474;2022-12-29T00:49:27;7.77;;;5.00;;
11996;SDS011;6058;48.704;9.474;2022-12-29T00:51:57;6.47;;;5.00;;
11996;SDS011;6058;48.704;9.474;2022-12-29T00:54:26;6.40;;;4.50;;
11996;SDS011;6058;48.704;9.474;2022-12-29T00:56:53;8.83;;;4.90;;
11996;SDS011;6058;48.704;9.474;2022-12-29T00:59:20;6.50;;;4.87;;
11996;SDS011;6058;48.704;9.474;2022-12-29T01:01:49;8.20;;;5.43;;
11996;SDS011;6058;48.704;9.474;2022-12-29T01:04:16;7.63;;;4.97;;
11996;SDS011;6058;48.704;9.474;2022-12-29T01:06:43;7.23;;;4.30;;
11996;SDS011;6058;48.704;9.474;2022-12-29T01:09:11;8.30;;;4.73;;
11996;SDS011;6058;48.704;9.474;2022-12-29T01:11:57;8.43;;;4.60;;
11996;SDS011;6058;48.704;9.474;2022-12-29T01:14:24;6.73;;;4.93;;
11996;SDS011;6058;48.704;9.474;2022-12-29T01:16:51;6.70;;;5.10;;
11996;SDS011;6058;48.704;9.474;2022-12-29T01:19:19;5.60;;;4.57;;
11996;SDS011;6058;48.704;9.474;2022-12-29T01:21:46;5.83;;;4.27;;
11996;SDS011;6058;48.704;9.474;2022-12-29T01:24:13;5.77;;;4.43;;
11996;SDS011;6058;48.704;9.474;2022-12-29T01:26:40;8.80;;;5.20;;
11996;SDS011;6058;48.704;9.474;2022-12-29T01:29:09;6.63;;;4.63;;
11996;SDS011;6058;48.704;9.474;2022-12-29T01:31:36;6.77;;;4.87;;
11996;SDS011;6058;48.704;9.474;2022-12-29T01:34:03;7.30;;;4.73;;
11996;SDS011;6058;48.704;9.474;2022-12-29T01:36:31;6.87;;;4.63;;
11996;SDS011;6058;48.704;9.474;2022-12-29T01:38:58;9.13;;;4.97;;
11996;SDS011;6058;48.704;9.474;2022-12-29T01:41:25;12.13;;;4.97;;
11996;SDS011;6058;48.704;9.474;2022-12-29T01:43:53;8.20;;;5.43;;
11996;SDS011;6058;48.704;9.474;2022-12-29T01:46:24;6.10;;;4.90;;
11996;SDS011;6058;48.704;9.474;2022-12-29T01:48:53;7.43;;;4.67;;
11996;SDS011;6058;48.704;9.474;2022-12-29T01:51:21;6.57;;;4.60;;
11996;SDS011;6058;48.704;9.474;2022-12-29T01:53:49;6.67;;;4.90;;
11996;SDS011;6058;48.704;9.474;2022-12-29T01:56:17;9.30;;;4.73;;
11996;SDS011;6058;48.704;9.474;2022-12-29T01:58:46;9.10;;;4.97;;
11996;SDS011;6058;48.704;9.474;2022-12-29T02:01:15;5.50;;;4.20;;
11996;SDS011;6058;48.704;9.474;2022-12-29T02:03:45;7.07;;;4.43;;
11996;SDS011;6058;48.704;9.474;2022-12-29T02:06:14;5.13;;;4.63;;
11996;SDS011;6058;48.704;9.474;2022-12-29T02:08:43;6.60;;;4.37;;
11996;SDS011;6058;48.704;9.474;2022-12-29T02:11:13;5.67;;;4.40;;
11996;SDS011;6058;48.704;9.474;2022-12-29T02:13:40;5.77;;;4.70;;
11996;SDS011;6058;48.704;9.474;2022-12-29T02:16:10;6.73;;;4.93;;
11996;SDS011;6058;48.704;9.474;2022-12-29T02:18:43;5.77;;;4.50;;
11996;SDS011;6058;48.704;9.474;2022-12-29T02:24:08;5.93;;;4.80;;
11996;SDS011;6058;48.704;9.474;2022-12-29T02:26:51;6.90;;;4.93;;
11996;SDS011;6058;48.704;9.474;2022-12-29T02:29:46;6.97;;;4.73;;
11996;SDS011;6058;48.704;9.474;2022-12-29T02:32:17;5.80;;;4.57;;
11996;SDS011;6058;48.704;9.474;2022-12-29T02:34:47;5.07;;;4.43;;
11996;SDS011;6058;48.704;9.474;2022-12-29T02:37:17;7.53;;;4.93;;
11996;SDS011;6058;48.704;9.474;2022-12-29T02:39:48;5.60;;;4.23;;
11996;SDS011;6058;48.704;9.474;2022-12-29T02:42:19;5.73;;;4.30;;
11996;SDS011;6058;48.704;9.474;2022-12-29T02:44:51;5.97;;;4.50;;
11996;SDS011;6058;48.704;9.474;2022-12-29T02:47:23;8.70;;;4.47;;
11996;SDS011;6058;48.704;9.474;2022-12-29T02:49:53;6.00;;;4.50;;
11996;SDS011;6058;48.704;9.474;2022-12-29T02:52:25;6.57;;;4.90;;
11996;SDS011;6058;48.704;9.474;2022-12-29T02:54:53;5.07;;;4.33;;
11996;SDS011;6058;48.704;9.474;2022-12-29T02:57:28;6.93;;;4.67;;
11996;SDS011;6058;48.704;9.474;2022-12-29T02:59:56;4.80;;;3.57;;
11996;SDS011;6058;48.704;9.474;2022-12-29T03:02:29;5.13;;;4.00;;
11996;SDS011;6058;48.704;9.474;2022-12-29T03:05:13;6.77;;;4.90;;
11996;SDS011;6058;48.704;9.474;2022-12-29T03:07:43;6.77;;;4.70;;
11996;SDS011;6058;48.704;9.474;2022-12-29T03:10:19;5.87;;;4.03;;
11996;SDS011;6058;48.704;9.474;2022-12-29T03:12:53;5.33;;;4.30;;
11996;SDS011;6058;48.704;9.474;2022-12-29T03:15:39;5.03;;;4.00;;
11996;SDS011;6058;48.704;9.474;2022-12-29T03:18:32;4.50;;;3.57;;
11996;SDS011;6058;48.704;9.474;2022-12-29T03:21:00;5.23;;;4.17;;
11996;SDS011;6058;48.704;9.474;2022-12-29T03:23:30;6.47;;;4.77;;
11996;SDS011;6058;48.704;9.474;2022-12-29T03:25:59;6.33;;;4.63;;
11996;SDS011;6058;48.704;9.474;2022-12-29T03:28:29;6.17;;;4.57;;
11996;SDS011;6058;48.704;9.474;2022-12-29T03:30:59;5.70;;;4.20;;
11996;SDS011;6058;48.704;9.474;2022-12-29T03:33:27;4.63;;;4.10;;
11996;SDS011;6058;48.704;9.474;2022-12-29T03:35:58;7.70;;;4.70;;
11996;SDS011;6058;48.704;9.474;2022-12-29T03:38:27;6.37;;;3.73;;
11996;SDS011;6058;48.704;9.474;2022-12-29T03:40:56;5.67;;;4.07;;
11996;SDS011;6058;48.704;9.474;2022-12-29T03:43:25;8.77;;;4.87;;
11996;SDS011;6058;48.704;9.474;2022-12-29T03:45:52;4.50;;;4.07;;
11996;SDS011;6058;48.704;9.474;2022-12-29T03:48:19;8.27;;;4.40;;
11996;SDS011;6058;48.704;9.474;2022-12-29T03:50:46;5.07;;;3.40;;
11996;SDS011;6058;48.704;9.474;2022-12-29T03:53:15;4.03;;;2.90;;
11996;SDS011;6058;48.704;9.474;2022-12-29T03:55:42;6.00;;;2.53;;
11996;SDS011;6058;48.704;9.474;2022-12-29T03:58:09;3.90;;;2.77;;
11996;SDS011;6058;48.704;9.474;2022-12-29T04:00:36;3.63;;;2.90;;
11996;SDS011;6058;48.704;9.474;2022-12-29T04:03:03;5.10;;;3.30;;
11996;SDS011;6058;48.704;9.474;2022-12-29T04:05:30;4.53;;;3.50;;
11996;SDS011;6058;48.704;9.474;2022-12-29T04:07:57;5.87;;;3.93;;
11996;SDS011;6058;48.704;9.474;2022-12-29T04:10:26;3.93;;;3.10;;
11996;SDS011;6058;48.704;9.474;2022-12-29T04:12:53;5.70;;;3.50;;
11996;SDS011;6058;48.704;9.474;2022-12-29T04:15:20;6.13;;;3.30;;
11996;SDS011;6058;48.704;9.474;2022-12-29T04:17:49;5.77;;;3.53;;
11996;SDS011;6058;48.704;9.474;2022-12-29T04:20:16;4.90;;;3.53;;
11996;SDS011;6058;48.704;9.474;2022-12-29T04:23:01;4.87;;;3.27;;
11996;SDS011;6058;48.704;9.474;2022-12-29T04:25:29;4.93;;;3.07;;
11996;SDS011;6058;48.704;9.474;2022-12-29T04:27:56;4.40;;;3.13;;
11996;SDS011;6058;48.704;9.474;2022-12-29T04:30:24;4.03;;;2.70;;
11996;SDS011;6058;48.704;9.474;2022-12-29T04:32:51;4.57;;;3.10;;
11996;SDS011;6058;48.704;9.474;2022-12-29T04:35:18;5.07;;;2.23;;
11996;SDS011;6058;48.704;9.474;2022-12-29T04:37:45;4.70;;;3.37;;
11996;SDS011;6058;48.704;9.474;2022-12-29T04:40:12;4.00;;;2.70;;
11996;SDS011;6058;48.704;9.474;2022-12-29T04:42:41;4.93;;;3.10;;
11996;SDS011;6058;48.704;9.474;2022-12-29T04:45:08;5.43;;;3.43;;
11996;SDS011;6058;48.704;9.474;2022-12-29T04:47:35;5.10;;;2.97;;
11996;SDS011;6058;48.704;9.474;2022-12-29T04:50:03;4.23;;;3.30;;
11996;SDS011;6058;48.704;9.474;2022-12-29T04:52:30;4.83;;;3.37;;
11996;SDS011;6058;48.704;9.474;2022-12-29T04:54:57;5.43;;;2.70;;
11996;SDS011;6058;48.704;9.474;2022-12-29T04:57:24;3.53;;;2.47;;
11996;SDS011;6058;48.704;9.474;2022-12-29T04:59:53;3.37;;;2.47;;
11996;SDS011;6058;48.704;9.474;2022-12-29T05:02:20;3.73;;;2.60;;
11996;SDS011;6058;48.704;9.474;2022-12-29T05:04:47;8.07;;;2.47;;
11996;SDS011;6058;48.704;9.474;2022-12-29T05:07:14;2.70;;;2.50;;
11996;SDS011;6058;48.704;9.474;2022-12-29T05:09:41;3.63;;;2.53;;
11996;SDS011;6058;48.704;9.474;2022-12-29T05:12:09;2.30;;;2.10;;
11996;SDS011;6058;48.704;9.474;2022-12-29T05:14:36;3.70;;;2.33;;
11996;SDS011;6058;48.704;9.474;2022-12-29T05:17:04;2.00;;;1.70;;
11996;SDS011;6058;48.704;9.474;2022-12-29T05:19:31;7.63;;;2.00;;
11996;SDS011;6058;48.704;9.474;2022-12-29T05:21:58;1.40;;;1.30;;
11996;SDS011;6058;48.704;9.474;2022-12-29T05:24:25;1.73;;;1.63;;
11996;SDS011;6058;48.704;9.474;2022-12-29T05:26:53;3.70;;;1.60;;
11996;SDS011;6058;48.704;9.474;2022-12-29T05:29:20;2.80;;;1.30;;
11996;SDS011;6058;48.704;9.474;2022-12-29T05:31:47;1.37;;;1.27;;
11996;SDS011;6058;48.704;9.474;2022-12-29T05:34:15;1.30;;;1.20;;
11996;SDS011;6058;48.704;9.474;2022-12-29T05:36:42;2.77;;;1.20;;
11996;SDS011;6058;48.704;9.474;2022-12-29T05:39:10;1.30;;;1.20;;
11996;SDS011;6058;48.704;9.474;2022-12-29T05:41:37;4.43;;;1.47;;
11996;SDS011;6058;48.704;9.474;2022-12-29T05:44:04;3.67;;;1.53;;
11996;SDS011;6058;48.704;9.474;2022-12-29T05:46:31;3.23;;;1.33;;
11996;SDS011;6058;48.704;9.474;2022-12-29T05:48:58;2.17;;;1.10;;
11996;SDS011;6058;48.704;9.474;2022-12-29T05:51:26;3.53;;;1.10;;
11996;SDS011;6058;48.704;9.474;2022-12-29T05:53:54;2.13;;;1.10;;
11996;SDS011;6058;48.704;9.474;2022-12-29T05:56:21;2.10;;;1.03;;
11996;SDS011;6058;48.704;9.474;2022-12-29T05:58:48;2.97;;;1.27;;
11996;SDS011;6058;48.704;9.474;2022-12-29T06:01:15;1.97;;;1.27;;
11996;SDS011;6058;48.704;9.474;2022-12-29T06:03:42;3.13;;;1.33;;
11996;SDS011;6058;48.704;9.474;2022-12-29T06:06:09;1.30;;;1.20;;
11996;SDS011;6058;48.704;9.474;2022-12-29T06:08:38;2.40;;;1.20;;
11996;SDS011;6058;48.704;9.474;2022-12-29T06:11:05;1.67;;;1.20;;
11996;SDS011;6058;48.704;9.474;2022-12-29T06:13:32;1.30;;;1.20;;
11996;SDS011;6058;48.704;9.474;2022-12-29T06:15:59;2.57;;;1.63;;
11996;SDS011;6058;48.704;9.474;2022-12-29T06:18:26;3.57;;;2.57;;
11996;SDS011;6058;48.704;9.474;2022-12-29T06:20:54;3.47;;;2.00;;
11996;SDS011;6058;48.704;9.474;2022-12-29T06:23:21;2.07;;;1.87;;
11996;SDS011;6058;48.704;9.474;2022-12-29T06:25:49;2.50;;;2.27;;
11996;SDS011;6058;48.704;9.474;2022-12-29T06:28:16;3.17;;;2.07;;
11996;SDS011;6058;48.704;9.474;2022-12-29T06:30:43;4.80;;;2.20;;
11996;SDS011;6058;48.704;9.474;2022-12-29T06:33:11;3.80;;;2.30;;
11996;SDS011;6058;48.704;9.474;2022-12-29T06:35:38;4.97;;;2.10;;
11996;SDS011;6058;48.704;9.474;2022-12-29T06:38:05;3.10;;;2.20;;
11996;SDS011;6058;48.704;9.474;2022-12-29T06:40:32;1.50;;;1.40;;
11996;SDS011;6058;48.704;9.474;2022-12-29T06:43:01;5.70;;;3.10;;
11996;SDS011;6058;48.704;9.474;2022-12-29T06:45:28;4.83;;;1.83;;
11996;SDS011;6058;48.704;9.474;2022-12-29T06:47:55;3.40;;;2.97;;
11996;SDS011;6058;48.704;9.474;2022-12-29T06:50:22;2.43;;;2.23;;
11996;SDS011;6058;48.704;9.474;2022-12-29T06:52:50;4.10;;;2.63;;
11996;SDS011;6058;48.704;9.474;2022-12-29T06:55:17;3.07;;;2.07;;
11996;SDS011;6058;48.704;9.474;2022-12-29T06:57:44;2.93;;;2.60;;
11996;SDS011;6058;48.704;9.474;2022-12-29T07:00:13;3.90;;;2.47;;
11996;SDS011;6058;48.704;9.474;2022-12-29T07:02:40;2.70;;;1.60;;
11996;SDS011;6058;48.704;9.474;2022-12-29T07:05:07;4.23;;;2.10;;
11996;SDS011;6058;48.704;9.474;2022-12-29T07:07:35;3.30;;;1.77;;
11996;SDS011;6058;48.704;9.474;2022-12-29T07:10:02;2.23;;;2.03;;
11996;SDS011;6058;48.704;9.474;2022-12-29T07:12:29;2.70;;;1.90;;
11996;SDS011;6058;48.704;9.474;2022-12-29T07:14:56;2.30;;;2.10;;
11996;SDS011;6058;48.704;9.474;2022-12-29T07:17:25;2.50;;;2.20;;
11996;SDS011;6058;48.704;9.474;2022-12-29T07:19:52;2.30;;;2.10;;
11996;SDS011;6058;48.704;9.474;2022-12-29T07:22:19;2.57;;;2.27;;
11996;SDS011;6058;48.704;9.474;2022-12-29T07:24:46;1.70;;;1.60;;
11996;SDS011;6058;48.704;9.474;2022-12-29T07:27:13;3.07;;;1.93;;
11996;SDS011;6058;48.704;9.474;2022-12-29T07:29:41;7.53;;;2.53;;
11996;SDS011;6058;48.704;9.474;2022-12-29T07:32:08;2.87;;;2.50;;
11996;SDS011;6058;48.704;9.474;2022-12-29T07:34:36;4.57;;;2.73;;
11996;SDS011;6058;48.704;9.474;2022-12-29T07:37:04;4.53;;;2.33;;
11996;SDS011;6058;48.704;9.474;2022-12-29T07:39:31;5.40;;;2.70;;
11996;SDS011;6058;48.704;9.474;2022-12-29T07:41:59;5.93;;;2.27;;
11996;SDS011;6058;48.704;9.474;2022-12-29T07:44:26;2.73;;;2.40;;
11996;SDS011;6058;48.704;9.474;2022-12-29T07:46:53;3.33;;;2.50;;
11996;SDS011;6058;48.704;9.474;2022-12-29T07:49:20;5.30;;;2.37;;
11996;SDS011;6058;48.704;9.474;2022-12-29T07:51:49;3.50;;;2.10;;
11996;SDS011;6058;48.704;9.474;2022-12-29T07:54:16;3.40;;;2.63;;
11996;SDS011;6058;48.704;9.474;2022-12-29T07:56:44;3.47;;;2.37;;
11996;SDS011;6058;48.704;9.474;2022-12-29T07:59:11;4.27;;;3.20;;
11996;SDS011;6058;48.704;9.474;2022-12-29T08:01:39;5.23;;;3.00;;
11996;SDS011;6058;48.704;9.474;2022-12-29T08:04:06;3.27;;;2.87;;
11996;SDS011;6058;48.704;9.474;2022-12-29T08:06:33;5.40;;;3.53;;
11996;SDS011;6058;48.704;9.474;2022-12-29T08:09:05;4.37;;;3.20;;
11996;SDS011;6058;48.704;9.474;2022-12-29T08:11:32;5.83;;;3.30;;
11996;SDS011;6058;48.704;9.474;2022-12-29T08:13:59;6.40;;;3.30;;
11996;SDS011;6058;48.704;9.474;2022-12-29T08:16:26;3.57;;;2.07;;
11996;SDS011;6058;48.704;9.474;2022-12-29T08:18:53;7.43;;;3.53;;
11996;SDS011;6058;48.704;9.474;2022-12-29T08:21:20;7.80;;;3.93;;
11996;SDS011;6058;48.704;9.474;2022-12-29T08:23:47;4.00;;;2.83;;
11996;SDS011;6058;48.704;9.474;2022-12-29T08:26:16;6.40;;;3.10;;
11996;SDS011;6058;48.704;9.474;2022-12-29T08:28:43;6.30;;;3.03;;
11996;SDS011;6058;48.704;9.474;2022-12-29T08:31:10;6.23;;;3.77;;
11996;SDS011;6058;48.704;9.474;2022-12-29T08:33:37;5.70;;;3.23;;
11996;SDS011;6058;48.704;9.474;2022-12-29T08:36:05;5.43;;;3.10;;
11996;SDS011;6058;48.704;9.474;2022-12-29T08:38:33;4.47;;;2.57;;
11996;SDS011;6058;48.704;9.474;2022-12-29T08:41:00;6.33;;;2.70;;
11996;SDS011;6058;48.704;9.474;2022-12-29T08:43:28;4.63;;;3.27;;
11996;SDS011;6058;48.704;9.474;2022-12-29T08:45:56;6.50;;;2.67;;
11996;SDS011;6058;48.704;9.474;2022-12-29T08:48:24;3.13;;;2.73;;
11996;SDS011;6058;48.704;9.474;2022-12-29T08:50:51;3.27;;;2.70;;
11996;SDS011;6058;48.704;9.474;2022-12-29T08:53:18;6.10;;;3.03;;
11996;SDS011;6058;48.704;9.474;2022-12-29T08:55:45;3.23;;;2.60;;
11996;SDS011;6058;48.704;9.474;2022-12-29T08:58:13;3.43;;;2.23;;
11996;SDS011;6058;48.704;9.474;2022-12-29T09:00:42;2.43;;;1.80;;
11996;SDS011;6058;48.704;9.474;2022-12-29T09:03:09;5.60;;;2.10;;
11996;SDS011;6058;48.704;9.474;2022-12-29T09:05:37;3.10;;;2.33;;
11996;SDS011;6058;48.704;9.474;2022-12-29T09:08:04;3.33;;;2.70;;
11996;SDS011;6058;48.704;9.474;2022-12-29T09:10:31;5.90;;;2.33;;
11996;SDS011;6058;48.704;9.474;2022-12-29T09:12:58;1.97;;;1.70;;
11996;SDS011;6058;48.704;9.474;2022-12-29T09:15:26;4.43;;;1.63;;
11996;SDS011;6058;48.704;9.474;2022-12-29T09:17:54;3.50;;;1.70;;
11996;SDS011;6058;48.704;9.474;2022-12-29T09:20:26;1.63;;;1.20;;
11996;SDS011;6058;48.704;9.474;2022-12-29T09:22:54;2.00;;;1.60;;
11996;SDS011;6058;48.704;9.474;2022-12-29T09:25:21;2.77;;;1.13;;
11996;SDS011;6058;48.704;9.474;2022-12-29T09:27:49;1.63;;;1.53;;
11996;SDS011;6058;48.704;9.474;2022-12-29T09:30:18;1.60;;;1.50;;
11996;SDS011;6058;48.704;9.474;2022-12-29T09:32:45;3.83;;;1.60;;
11996;SDS011;6058;48.704;9.474;2022-12-29T09:35:14;4.13;;;2.77;;
11996;SDS011;6058;48.704;9.474;2022-12-29T09:37:42;3.60;;;2.30;;
11996;SDS011;6058;48.704;9.474;2022-12-29T09:40:14;2.53;;;2.00;;
11996;SDS011;6058;48.704;9.474;2022-12-29T09:42:45;3.77;;;1.90;;
11996;SDS011;6058;48.704;9.474;2022-12-29T09:45:18;2.93;;;2.17;;
11996;SDS011;6058;48.704;9.474;2022-12-29T09:47:47;2.47;;;1.60;;
11996;SDS011;6058;48.704;9.474;2022-12-29T09:50:17;2.13;;;1.50;;
11996;SDS011;6058;48.704;9.474;2022-12-29T09:52:47;3.13;;;1.40;;
11996;SDS011;6058;48.704;9.474;2022-12-29T09:55:15;2.07;;;1.63;;
11996;SDS011;6058;48.704;9.474;2022-12-29T09:57:45;4.47;;;1.47;;
11996;SDS011;6058;48.704;9.474;2022-12-29T10:00:14;1.27;;;1.10;;
11996;SDS011;6058;48.704;9.474;2022-12-29T10:02:42;3.57;;;1.47;;
11996;SDS011;6058;48.704;9.474;2022-12-29T10:05:16;1.23;;;1.13;;
11996;SDS011;6058;48.704;9.474;2022-12-29T10:07:48;2.67;;;2.23;;
11996;SDS011;6058;48.704;9.474;2022-12-29T10:10:20;3.30;;;2.10;;
11996;SDS011;6058;48.704;9.474;2022-12-29T10:12:57;2.20;;;1.40;;
11996;SDS011;6058;48.704;9.474;2022-12-29T10:15:29;2.90;;;1.10;;
11996;SDS011;6058;48.704;9.474;2022-12-29T10:18:01;1.27;;;1.17;;
11996;SDS011;6058;48.704;9.474;2022-12-29T10:20:31;1.20;;;1.10;;
11996;SDS011;6058;48.704;9.474;2022-12-29T10:25:43;2.30;;;1.50;;
11996;SDS011;6058;48.704;9.474;2022-12-29T10:28:15;1.20;;;1.10;;
11996;SDS011;6058;48.704;9.474;2022-12-29T10:30:44;1.33;;;1.20;;
11996;SDS011;6058;48.704;9.474;2022-12-29T10:33:14;1.80;;;1.43;;
11996;SDS011;6058;48.704;9.474;2022-12-29T10:35:43;2.80;;;1.30;;
11996;SDS011;6058;48.704;9.474;2022-12-29T10:38:12;2.33;;;1.30;;
11996;SDS011;6058;48.704;9.474;2022-12-29T10:40:45;1.90;;;1.47;;
11996;SDS011;6058;48.704;9.474;2022-12-29T10:43:16;1.60;;;1.30;;
11996;SDS011;6058;48.704;9.474;2022-12-29T10:45:45;1.20;;;1.10;;
11996;SDS011;6058;48.704;9.474;2022-12-29T10:48:14;2.07;;;1.20;;
11996;SDS011;6058;48.704;9.474;2022-12-29T10:50:47;2.50;;;1.37;;
11996;SDS011;6058;48.704;9.474;2022-12-29T10:53:22;1.20;;;1.10;;
11996;SDS011;6058;48.704;9.474;2022-12-29T10:55:57;2.47;;;1.37;;
11996;SDS011;6058;48.704;9.474;2022-12-29T10:58:25;2.03;;;1.57;;
11996;SDS011;6058;48.704;9.474;2022-12-29T11:00:53;2.33;;;1.27;;
11996;SDS011;6058;48.704;9.474;2022-12-29T11:03:33;1.50;;;0.87;;
11996;SDS011;6058;48.704;9.474;2022-12-29T11:06:03;1.40;;;1.30;;
11996;SDS011;6058;48.704;9.474;2022-12-29T11:08:35;1.60;;;0.97;;
11996;SDS011;6058;48.704;9.474;2022-12-29T11:11:05;0.97;;;0.77;;
11996;SDS011;6058;48.704;9.474;2022-12-29T11:13:34;2.87;;;1.10;;
11996;SDS011;6058;48.704;9.474;2022-12-29T11:16:02;1.37;;;0.97;;
11996;SDS011;6058;48.704;9.474;2022-12-29T11:18:32;1.07;;;1.00;;
11996;SDS011;6058;48.704;9.474;2022-12-29T11:21:01;1.30;;;1.20;;
11996;SDS011;6058;48.704;9.474;2022-12-29T11:23:30;3.87;;;1.10;;
11996;SDS011;6058;48.704;9.474;2022-12-29T11:26:06;1.13;;;0.80;;
11996;SDS011;6058;48.704;9.474;2022-12-29T11:28:34;1.57;;;1.10;;
11996;SDS011;6058;48.704;9.474;2022-12-29T11:31:03;1.17;;;1.07;;
11996;SDS011;6058;48.704;9.474;2022-12-29T11:33:32;2.00;;;1.10;;
11996;SDS011;6058;48.704;9.474;2022-12-29T11:36:01;2.97;;;1.20;;
11996;SDS011;6058;48.704;9.474;2022-12-29T11:38:30;1.07;;;1.07;;
11996;SDS011;6058;48.704;9.474;2022-12-29T11:41:00;1.43;;;1.20;;
11996;SDS011;6058;48.704;9.474;2022-12-29T11:43:31;2.10;;;1.17;;
11996;SDS011;6058;48.704;9.474;2022-12-29T11:45:59;2.43;;;1.00;;
11996;SDS011;6058;48.704;9.474;2022-12-29T11:48:29;2.27;;;1.23;;
11996;SDS011;6058;48.704;9.474;2022-12-29T11:50:57;1.80;;;1.13;;
11996;SDS011;6058;48.704;9.474;2022-12-29T11:53:25;1.23;;;1.13;;
11996;SDS011;6058;48.704;9.474;2022-12-29T11:55:53;3.40;;;1.30;;
11996;SDS011;6058;48.704;9.474;2022-12-29T11:58:27;2.20;;;1.50;;
11996;SDS011;6058;48.704;9.474;2022-12-29T12:00:58;1.87;;;1.00;;
11996;SDS011;6058;48.704;9.474;2022-12-29T12:03:26;10.80;;;6.80;;
11996;SDS011;6058;48.704;9.474;2022-12-29T12:05:55;10.40;;;6.83;;
11996;SDS011;6058;48.704;9.474;2022-12-29T12:08:28;21.50;;;13.17;;
11996;SDS011;6058;48.704;9.474;2022-12-29T12:10:58;17.97;;;11.20;;
11996;SDS011;6058;48.704;9.474;2022-12-29T12:13:31;3.23;;;2.17;;
11996;SDS011;6058;48.704;9.474;2022-12-29T12:16:04;1.50;;;1.40;;
11996;SDS011;6058;48.704;9.474;2022-12-29T12:18:34;1.40;;;1.30;;
11996;SDS011;6058;48.704;9.474;2022-12-29T12:21:09;3.07;;;1.37;;
11996;SDS011;6058;48.704;9.474;2022-12-29T12:26:15;1.30;;;1.20;;
11996;SDS011;6058;48.704;9.474;2022-12-29T12:28:45;1.17;;;1.13;;
11996;SDS011;6058;48.704;9.474;2022-12-29T12:31:25;1.40;;;1.30;;
11996;SDS011;6058;48.704;9.474;2022-12-29T12:33:53;7.63;;;1.60;;
11996;SDS011;6058;48.704;9.474;2022-12-29T12:36:43;1.40;;;1.27;;
11996;SDS011;6058;48.704;9.474;2022-12-29T12:39:16;1.43;;;1.30;;
11996;SDS011;6058;48.704;9.474;2022-12-29T12:44:38;3.10;;;1.57;;
11996;SDS011;6058;48.704;9.474;2022-12-29T12:47:24;1.30;;;1.20;;
11996;SDS011;6058;48.704;9.474;2022-12-29T12:49:59;3.00;;;1.60;;
11996;SDS011;6058;48.704;9.474;2022-12-29T12:52:33;3.20;;;1.40;;
11996;SDS011;6058;48.704;9.474;2022-12-29T12:55:10;1.43;;;1.20;;
11996;SDS011;6058;48.704;9.474;2022-12-29T12:57:47;1.17;;;1.17;;
11996;SDS011;6058;48.704;9.474;2022-12-29T13:00:18;1.70;;;1.50;;
11996;SDS011;6058;48.704;9.474;2022-12-29T13:02:53;1.40;;;1.30;;
11996;SDS011;6058;48.704;9.474;2022-12-29T13:05:38;1.73;;;1.40;;
11996;SDS011;6058;48.704;9.474;2022-12-29T13:11:02;1.77;;;1.37;;
11996;SDS011;6058;48.704;9.474;2022-12-29T13:13:35;2.63;;;1.17;;
11996;SDS011;6058;48.704;9.474;2022-12-29T13:16:06;1.83;;;1.27;;
11996;SDS011;6058;48.704;9.474;2022-12-29T13:18:41;2.30;;;1.20;;
11996;SDS011;6058;48.704;9.474;2022-12-29T13:21:14;1.40;;;1.30;;
11996;SDS011;6058;48.704;9.474;2022-12-29T13:23:43;1.37;;;1.27;;
11996;SDS011;6058;48.704;9.474;2022-12-29T13:26:14;2.67;;;1.10;;
11996;SDS011;6058;48.704;9.474;2022-12-29T13:28:46;3.07;;;1.10;;
11996;SDS011;6058;48.704;9.474;2022-12-29T13:31:15;1.40;;;1.20;;
11996;SDS011;6058;48.704;9.474;2022-12-29T13:33:49;2.07;;;1.30;;
11996;SDS011;6058;48.704;9.474;2022-12-29T13:36:20;1.00;;;1.00;;
11996;SDS011;6058;48.704;9.474;2022-12-29T13:38:50;2.43;;;1.47;;
11996;SDS011;6058;48.704;9.474;2022-12-29T13:41:19;1.13;;;1.03;;
11996;SDS011;6058;48.704;9.474;2022-12-29T13:43:47;2.27;;;1.40;;
11996;SDS011;6058;48.704;9.474;2022-12-29T13:46:17;3.03;;;1.47;;
11996;SDS011;6058;48.704;9.474;2022-12-29T13:48:46;2.30;;;1.60;;
11996;SDS011;6058;48.704;9.474;2022-12-29T13:51:17;1.87;;;1.30;;
11996;SDS011;6058;48.704;9.474;2022-12-29T13:53:53;3.40;;;1.60;;
11996;SDS011;6058;48.704;9.474;2022-12-29T13:56:22;4.30;;;1.50;;
11996;SDS011;6058;48.704;9.474;2022-12-29T13:58:52;1.60;;;1.40;;
11996;SDS011;6058;48.704;9.474;2022-12-29T14:01:21;3.80;;;1.67;;
11996;SDS011;6058;48.704;9.474;2022-12-29T14:03:50;2.37;;;1.47;;
11996;SDS011;6058;48.704;9.474;2022-12-29T14:06:25;1.73;;;1.57;;
11996;SDS011;6058;48.704;9.474;2022-12-29T14:08:54;2.73;;;1.57;;
11996;SDS011;6058;48.704;9.474;2022-12-29T14:11:22;2.80;;;1.60;;
11996;SDS011;6058;48.704;9.474;2022-12-29T14:13:50;4.07;;;1.70;;
11996;SDS011;6058;48.704;9.474;2022-12-29T14:16:25;2.07;;;1.33;;
11996;SDS011;6058;48.704;9.474;2022-12-29T14:18:53;1.63;;;1.53;;
11996;SDS011;6058;48.704;9.474;2022-12-29T14:21:22;2.03;;;1.40;;
11996;SDS011;6058;48.704;9.474;2022-12-29T14:23:57;2.20;;;1.33;;
11996;SDS011;6058;48.704;9.474;2022-12-29T14:26:36;1.70;;;1.50;;
11996;SDS011;6058;48.704;9.474;2022-12-29T14:29:16;1.37;;;1.27;;
11996;SDS011;6058;48.704;9.474;2022-12-29T14:32:09;2.53;;;1.20;;
11996;SDS011;6058;48.704;9.474;2022-12-29T14:34:52;3.53;;;1.47;;
11996;SDS011;6058;48.704;9.474;2022-12-29T14:37:27;1.00;;;1.00;;
11996;SDS011;6058;48.704;9.474;2022-12-29T14:40:04;2.30;;;1.30;;
11996;SDS011;6058;48.704;9.474;2022-12-29T14:42:32;1.30;;;1.20;;
11996;SDS011;6058;48.704;9.474;2022-12-29T14:45:01;2.03;;;1.20;;
11996;SDS011;6058;48.704;9.474;2022-12-29T14:47:32;3.73;;;1.10;;
11996;SDS011;6058;48.704;9.474;2022-12-29T14:50:03;1.40;;;1.30;;
11996;SDS011;6058;48.704;9.474;2022-12-29T14:52:31;2.73;;;1.03;;
11996;SDS011;6058;48.704;9.474;2022-12-29T14:54:59;1.27;;;1.03;;
11996;SDS011;6058;48.704;9.474;2022-12-29T14:57:33;2.67;;;1.10;;
11996;SDS011;6058;48.704;9.474;2022-12-29T15:00:07;1.10;;;1.00;;
11996;SDS011;6058;48.704;9.474;2022-12-29T15:02:38;1.23;;;1.13;;
11996;SDS011;6058;48.704;9.474;2022-12-29T15:05:14;1.83;;;1.40;;
11996;SDS011;6058;48.704;9.474;2022-12-29T15:07:46;1.73;;;1.50;;
11996;SDS011;6058;48.704;9.474;2022-12-29T15:10:14;4.83;;;1.70;;
11996;SDS011;6058;48.704;9.474;2022-12-29T15:12:45;1.60;;;1.40;;
11996;SDS011;6058;48.704;9.474;2022-12-29T15:15:18;3.40;;;1.27;;
11996;SDS011;6058;48.704;9.474;2022-12-29T15:17:46;1.70;;;1.30;;
11996;SDS011;6058;48.704;9.474;2022-12-29T15:20:16;1.37;;;1.23;;
11996;SDS011;6058;48.704;9.474;2022-12-29T15:22:43;2.47;;;1.27;;
11996;SDS011;6058;48.704;9.474;2022-12-29T15:25:12;5.43;;;1.63;;
11996;SDS011;6058;48.704;9.474;2022-12-29T15:27:41;4.10;;;1.63;;
11996;SDS011;6058;48.704;9.474;2022-12-29T15:30:11;1.93;;;1.40;;
11996;SDS011;6058;48.704;9.474;2022-12-29T15:32:40;1.57;;;1.47;;